sensor_id;sensor_type;location;lat;lon;timestamp;pressure;altitude;pressure_sealevel;temperature
68127;BMP180;54931;52.098;21.006;2023-02-18T00:01:38;99181.40;;;7.40
68127;BMP180;54931;52.098;21.006;2023-02-18T00:04:08;99180.40;;;7.40
68127;BMP180;54931;52.098;21.006;2023-02-18T00:06:37;99186.20;;;7.30
68127;BMP180;54931;52.098;21.006;2023-02-18T00:09:06;99172.40;;;7.30
68127;BMP180;54931;52.098;21.006;2023-02-18T00:11:36;99184.80;;;7.20
68127;BMP180;54931;52.098;21.006;2023-02-18T00:14:11;99175.20;;;7.12
68127;BMP180;54931;52.098;21.006;2023-02-18T00:16:40;99186.20;;;7.02
68127;BMP180;54931;52.098;21.006;2023-02-18T00:19:14;99210.40;;;7.00
68127;BMP180;54931;52.098;21.006;2023-02-18T00:21:43;99217.60;;;6.90
68127;BMP180;54931;52.098;21.006;2023-02-18T00:24:14;99179.00;;;6.80
68127;BMP180;54931;52.098;21.006;2023-02-18T00:26:43;99198.80;;;6.80
68127;BMP180;54931;52.098;21.006;2023-02-18T00:29:12;99205.60;;;6.80
68127;BMP180;54931;52.098;21.006;2023-02-18T00:31:40;99153.20;;;6.80
68127;BMP180;54931;52.098;21.006;2023-02-18T00:34:10;99206.60;;;6.80
68127;BMP180;54931;52.098;21.006;2023-02-18T00:36:39;99203.20;;;6.80
68127;BMP180;54931;52.098;21.006;2023-02-18T00:39:09;99201.20;;;6.72
68127;BMP180;54931;52.098;21.006;2023-02-18T00:41:39;99209.20;;;6.80
68127;BMP180;54931;52.098;21.006;2023-02-18T00:44:08;99231.40;;;6.80
68127;BMP180;54931;52.098;21.006;2023-02-18T00:46:37;99219.40;;;6.80
68127;BMP180;54931;52.098;21.006;2023-02-18T00:49:05;99218.20;;;6.80
68127;BMP180;54931;52.098;21.006;2023-02-18T00:51:35;99227.60;;;6.80
68127;BMP180;54931;52.098;21.006;2023-02-18T00:54:02;99226.20;;;6.70
68127;BMP180;54931;52.098;21.006;2023-02-18T00:56:31;99225.00;;;6.70
68127;BMP180;54931;52.098;21.006;2023-02-18T00:58:58;99213.20;;;6.60
68127;BMP180;54931;52.098;21.006;2023-02-18T01:01:27;99229.60;;;6.60
68127;BMP180;54931;52.098;21.006;2023-02-18T01:03:55;99224.20;;;6.60
68127;BMP180;54931;52.098;21.006;2023-02-18T01:06:23;99226.60;;;6.60
68127;BMP180;54931;52.098;21.006;2023-02-18T01:08:51;99229.20;;;6.60
68127;BMP180;54931;52.098;21.006;2023-02-18T01:11:19;99229.40;;;6.60
68127;BMP180;54931;52.098;21.006;2023-02-18T01:13:47;99217.40;;;6.60
68127;BMP180;54931;52.098;21.006;2023-02-18T01:16:15;99227.40;;;6.60
68127;BMP180;54931;52.098;21.006;2023-02-18T01:18:43;99220.40;;;6.60
68127;BMP180;54931;52.098;21.006;2023-02-18T01:21:11;99231.60;;;6.60
68127;BMP180;54931;52.098;21.006;2023-02-18T01:23:40;99231.20;;;6.60
68127;BMP180;54931;52.098;21.006;2023-02-18T01:26:09;99238.00;;;6.66
68127;BMP180;54931;52.098;21.006;2023-02-18T01:28:39;99223.80;;;6.70
68127;BMP180;54931;52.098;21.006;2023-02-18T01:31:10;99234.40;;;6.70
68127;BMP180;54931;52.098;21.006;2023-02-18T01:33:38;99232.20;;;6.70
68127;BMP180;54931;52.098;21.006;2023-02-18T01:36:08;99219.40;;;6.70
68127;BMP180;54931;52.098;21.006;2023-02-18T01:38:36;99234.20;;;6.70
68127;BMP180;54931;52.098;21.006;2023-02-18T01:41:05;99238.20;;;6.70
68127;BMP180;54931;52.098;21.006;2023-02-18T01:43:34;99233.60;;;6.70
68127;BMP180;54931;52.098;21.006;2023-02-18T01:46:12;99228.60;;;6.70
68127;BMP180;54931;52.098;21.006;2023-02-18T01:48:45;99222.40;;;6.70
68127;BMP180;54931;52.098;21.006;2023-02-18T01:51:23;99227.00;;;6.70
68127;BMP180;54931;52.098;21.006;2023-02-18T01:54:02;99191.40;;;6.70
68127;BMP180;54931;52.098;21.006;2023-02-18T01:56:41;99217.60;;;6.70
68127;BMP180;54931;52.098;21.006;2023-02-18T01:59:19;99221.40;;;6.70
68127;BMP180;54931;52.098;21.006;2023-02-18T02:01:48;99228.80;;;6.70
68127;BMP180;54931;52.098;21.006;2023-02-18T02:04:17;99227.40;;;6.70
68127;BMP180;54931;52.098;21.006;2023-02-18T02:06:46;99212.00;;;6.70
68127;BMP180;54931;52.098;21.006;2023-02-18T02:09:18;99217.80;;;6.70
68127;BMP180;54931;52.098;21.006;2023-02-18T02:12:09;99229.40;;;6.70
68127;BMP180;54931;52.098;21.006;2023-02-18T02:24:23;99230.00;;;6.70
68127;BMP180;54931;52.098;21.006;2023-02-18T02:27:39;99196.40;;;6.60
68127;BMP180;54931;52.098;21.006;2023-02-18T02:37:55;99229.00;;;6.50
68127;BMP180;54931;52.098;21.006;2023-02-18T02:40:40;99214.80;;;6.50
68127;BMP180;54931;52.098;21.006;2023-02-18T02:46:34;99230.40;;;6.38
68127;BMP180;54931;52.098;21.006;2023-02-18T02:52:09;99230.80;;;6.30
68127;BMP180;54931;52.098;21.006;2023-02-18T02:54:38;99220.00;;;6.30
68127;BMP180;54931;52.098;21.006;2023-02-18T02:59:51;99240.60;;;6.30
68127;BMP180;54931;52.098;21.006;2023-02-18T03:11:39;99233.80;;;6.10
68127;BMP180;54931;52.098;21.006;2023-02-18T03:14:22;99228.20;;;6.10
68127;BMP180;54931;52.098;21.006;2023-02-18T03:17:02;99240.00;;;6.10
68127;BMP180;54931;52.098;21.006;2023-02-18T03:20:22;99230.40;;;6.10
68127;BMP180;54931;52.098;21.006;2023-02-18T03:22:53;99249.60;;;6.10
68127;BMP180;54931;52.098;21.006;2023-02-18T03:25:23;99224.40;;;6.00
68127;BMP180;54931;52.098;21.006;2023-02-18T03:28:16;99240.40;;;5.98
68127;BMP180;54931;52.098;21.006;2023-02-18T03:30:52;99244.80;;;5.90
68127;BMP180;54931;52.098;21.006;2023-02-18T03:33:36;99257.00;;;5.90
68127;BMP180;54931;52.098;21.006;2023-02-18T03:36:05;99266.00;;;5.80
68127;BMP180;54931;52.098;21.006;2023-02-18T03:38:44;99263.80;;;5.80
68127;BMP180;54931;52.098;21.006;2023-02-18T03:41:15;99260.40;;;5.80
68127;BMP180;54931;52.098;21.006;2023-02-18T03:43:52;99261.60;;;5.80
68127;BMP180;54931;52.098;21.006;2023-02-18T03:46:20;99255.20;;;5.72
68127;BMP180;54931;52.098;21.006;2023-02-18T03:48:48;99279.40;;;5.72
68127;BMP180;54931;52.098;21.006;2023-02-18T03:51:16;99277.40;;;5.70
68127;BMP180;54931;52.098;21.006;2023-02-18T03:53:43;99266.20;;;5.70
68127;BMP180;54931;52.098;21.006;2023-02-18T03:56:13;99284.00;;;5.70
68127;BMP180;54931;52.098;21.006;2023-02-18T03:58:41;99273.80;;;5.60
68127;BMP180;54931;52.098;21.006;2023-02-18T04:01:09;99296.00;;;5.60
68127;BMP180;54931;52.098;21.006;2023-02-18T04:03:38;99295.20;;;5.60
68127;BMP180;54931;52.098;21.006;2023-02-18T04:06:06;99313.40;;;5.60
68127;BMP180;54931;52.098;21.006;2023-02-18T04:08:34;99294.60;;;5.50
68127;BMP180;54931;52.098;21.006;2023-02-18T04:11:03;99295.60;;;5.50
68127;BMP180;54931;52.098;21.006;2023-02-18T04:13:32;99286.40;;;5.40
68127;BMP180;54931;52.098;21.006;2023-02-18T04:15:59;99289.00;;;5.50
68127;BMP180;54931;52.098;21.006;2023-02-18T04:18:27;99284.00;;;5.40
68127;BMP180;54931;52.098;21.006;2023-02-18T04:20:55;99306.00;;;5.40
68127;BMP180;54931;52.098;21.006;2023-02-18T04:23:23;99302.60;;;5.40
68127;BMP180;54931;52.098;21.006;2023-02-18T04:25:51;99303.20;;;5.40
68127;BMP180;54931;52.098;21.006;2023-02-18T04:28:19;99289.60;;;5.30
68127;BMP180;54931;52.098;21.006;2023-02-18T04:30:47;99292.20;;;5.40
68127;BMP180;54931;52.098;21.006;2023-02-18T04:33:16;99284.60;;;5.30
68127;BMP180;54931;52.098;21.006;2023-02-18T04:35:44;99312.80;;;5.34
68127;BMP180;54931;52.098;21.006;2023-02-18T04:38:13;99309.00;;;5.40
68127;BMP180;54931;52.098;21.006;2023-02-18T04:40:41;99311.20;;;5.38
68127;BMP180;54931;52.098;21.006;2023-02-18T04:43:09;99284.20;;;5.30
68127;BMP180;54931;52.098;21.006;2023-02-18T04:45:37;99301.00;;;5.30
68127;BMP180;54931;52.098;21.006;2023-02-18T04:48:05;99303.60;;;5.30
68127;BMP180;54931;52.098;21.006;2023-02-18T04:50:34;99313.40;;;5.30
68127;BMP180;54931;52.098;21.006;2023-02-18T04:53:01;99295.80;;;5.30
68127;BMP180;54931;52.098;21.006;2023-02-18T04:55:29;99298.20;;;5.32
68127;BMP180;54931;52.098;21.006;2023-02-18T04:57:57;99280.40;;;5.30
68127;BMP180;54931;52.098;21.006;2023-02-18T05:00:25;99291.80;;;5.30
68127;BMP180;54931;52.098;21.006;2023-02-18T05:02:55;99299.40;;;5.30
68127;BMP180;54931;52.098;21.006;2023-02-18T05:05:23;99307.00;;;5.22
68127;BMP180;54931;52.098;21.006;2023-02-18T05:07:51;99291.00;;;5.20
68127;BMP180;54931;52.098;21.006;2023-02-18T05:10:20;99290.80;;;5.10
68127;BMP180;54931;52.098;21.006;2023-02-18T05:12:48;99291.20;;;5.10
68127;BMP180;54931;52.098;21.006;2023-02-18T05:15:17;99301.80;;;5.00
68127;BMP180;54931;52.098;21.006;2023-02-18T05:17:44;99301.80;;;5.00
68127;BMP180;54931;52.098;21.006;2023-02-18T05:20:13;99316.20;;;5.10
68127;BMP180;54931;52.098;21.006;2023-02-18T05:22:41;99297.80;;;5.10
68127;BMP180;54931;52.098;21.006;2023-02-18T05:25:09;99322.60;;;5.10
68127;BMP180;54931;52.098;21.006;2023-02-18T05:27:37;99324.40;;;5.10
68127;BMP180;54931;52.098;21.006;2023-02-18T05:30:06;99326.00;;;5.10
68127;BMP180;54931;52.098;21.006;2023-02-18T05:32:34;99321.20;;;5.10
68127;BMP180;54931;52.098;21.006;2023-02-18T05:35:02;99333.20;;;5.10
68127;BMP180;54931;52.098;21.006;2023-02-18T05:37:31;99334.00;;;5.10
68127;BMP180;54931;52.098;21.006;2023-02-18T05:39:59;99333.80;;;5.14
68127;BMP180;54931;52.098;21.006;2023-02-18T05:42:27;99312.00;;;5.18
68127;BMP180;54931;52.098;21.006;2023-02-18T05:44:55;99333.20;;;5.20
68127;BMP180;54931;52.098;21.006;2023-02-18T05:47:22;99338.80;;;5.20
68127;BMP180;54931;52.098;21.006;2023-02-18T05:49:50;99326.80;;;5.20
68127;BMP180;54931;52.098;21.006;2023-02-18T05:52:18;99321.60;;;5.20
68127;BMP180;54931;52.098;21.006;2023-02-18T05:54:46;99324.60;;;5.20
68127;BMP180;54931;52.098;21.006;2023-02-18T05:57:14;99340.80;;;5.24
68127;BMP180;54931;52.098;21.006;2023-02-18T05:59:42;99342.00;;;5.30
68127;BMP180;54931;52.098;21.006;2023-02-18T06:02:10;99340.60;;;5.30
68127;BMP180;54931;52.098;21.006;2023-02-18T06:04:38;99347.00;;;5.30
68127;BMP180;54931;52.098;21.006;2023-02-18T06:07:07;99331.20;;;5.30
68127;BMP180;54931;52.098;21.006;2023-02-18T06:09:35;99356.80;;;5.30
68127;BMP180;54931;52.098;21.006;2023-02-18T06:12:03;99351.40;;;5.32
68127;BMP180;54931;52.098;21.006;2023-02-18T06:14:32;99363.00;;;5.40
68127;BMP180;54931;52.098;21.006;2023-02-18T06:17:01;99368.00;;;5.40
68127;BMP180;54931;52.098;21.006;2023-02-18T06:19:29;99385.60;;;5.36
68127;BMP180;54931;52.098;21.006;2023-02-18T06:21:57;99394.20;;;5.32
68127;BMP180;54931;52.098;21.006;2023-02-18T06:24:25;99390.00;;;5.30
68127;BMP180;54931;52.098;21.006;2023-02-18T06:26:53;99397.20;;;5.40
68127;BMP180;54931;52.098;21.006;2023-02-18T06:29:21;99401.00;;;5.40
68127;BMP180;54931;52.098;21.006;2023-02-18T06:31:50;99403.40;;;5.40
68127;BMP180;54931;52.098;21.006;2023-02-18T06:34:18;99389.00;;;5.34
68127;BMP180;54931;52.098;21.006;2023-02-18T06:36:46;99414.80;;;5.40
68127;BMP180;54931;52.098;21.006;2023-02-18T06:39:15;99405.00;;;5.40
68127;BMP180;54931;52.098;21.006;2023-02-18T06:41:43;99404.40;;;5.40
68127;BMP180;54931;52.098;21.006;2023-02-18T06:44:12;99413.60;;;5.40
68127;BMP180;54931;52.098;21.006;2023-02-18T06:46:44;99390.20;;;5.40
68127;BMP180;54931;52.098;21.006;2023-02-18T06:49:13;99424.60;;;5.40
68127;BMP180;54931;52.098;21.006;2023-02-18T06:51:41;99424.20;;;5.42
68127;BMP180;54931;52.098;21.006;2023-02-18T06:54:09;99417.80;;;5.46
68127;BMP180;54931;52.098;21.006;2023-02-18T06:56:37;99423.40;;;5.50
68127;BMP180;54931;52.098;21.006;2023-02-18T06:59:05;99428.60;;;5.50
68127;BMP180;54931;52.098;21.006;2023-02-18T07:01:35;99421.40;;;5.50
68127;BMP180;54931;52.098;21.006;2023-02-18T07:04:03;99422.20;;;5.50
68127;BMP180;54931;52.098;21.006;2023-02-18T07:06:31;99426.80;;;5.50
68127;BMP180;54931;52.098;21.006;2023-02-18T07:08:59;99428.80;;;5.60
68127;BMP180;54931;52.098;21.006;2023-02-18T07:11:28;99421.00;;;5.56
68127;BMP180;54931;52.098;21.006;2023-02-18T07:13:56;99438.00;;;5.60
68127;BMP180;54931;52.098;21.006;2023-02-18T07:16:24;99439.80;;;5.60
68127;BMP180;54931;52.098;21.006;2023-02-18T07:18:52;99433.60;;;5.60
68127;BMP180;54931;52.098;21.006;2023-02-18T07:21:20;99451.60;;;5.60
68127;BMP180;54931;52.098;21.006;2023-02-18T07:23:48;99447.80;;;5.60
68127;BMP180;54931;52.098;21.006;2023-02-18T07:26:16;99442.40;;;5.60
68127;BMP180;54931;52.098;21.006;2023-02-18T07:28:44;99443.80;;;5.60
68127;BMP180;54931;52.098;21.006;2023-02-18T07:31:12;99435.80;;;5.60
68127;BMP180;54931;52.098;21.006;2023-02-18T07:33:40;99427.80;;;5.60
68127;BMP180;54931;52.098;21.006;2023-02-18T07:36:09;99429.80;;;5.68
68127;BMP180;54931;52.098;21.006;2023-02-18T07:38:38;99415.20;;;5.70
68127;BMP180;54931;52.098;21.006;2023-02-18T07:41:06;99410.00;;;5.80
68127;BMP180;54931;52.098;21.006;2023-02-18T07:43:34;99398.00;;;5.80
68127;BMP180;54931;52.098;21.006;2023-02-18T07:46:05;99411.60;;;5.88
68127;BMP180;54931;52.098;21.006;2023-02-18T07:48:33;99396.20;;;6.04
68127;BMP180;54931;52.098;21.006;2023-02-18T07:51:06;99413.20;;;6.00
68127;BMP180;54931;52.098;21.006;2023-02-18T07:53:37;99382.20;;;6.26
68127;BMP180;54931;52.098;21.006;2023-02-18T07:56:06;99407.00;;;6.36
68127;BMP180;54931;52.098;21.006;2023-02-18T07:58:37;99414.40;;;6.40
68127;BMP180;54931;52.098;21.006;2023-02-18T08:01:11;99422.80;;;6.50
68127;BMP180;54931;52.098;21.006;2023-02-18T08:03:42;99424.60;;;6.60
68127;BMP180;54931;52.098;21.006;2023-02-18T08:06:24;99414.60;;;6.80
68127;BMP180;54931;52.098;21.006;2023-02-18T08:08:53;99426.20;;;6.66
68127;BMP180;54931;52.098;21.006;2023-02-18T08:11:21;99436.80;;;6.62
68127;BMP180;54931;52.098;21.006;2023-02-18T08:13:49;99441.20;;;6.68
68127;BMP180;54931;52.098;21.006;2023-02-18T08:16:19;99420.00;;;6.78
68127;BMP180;54931;52.098;21.006;2023-02-18T08:18:49;99414.60;;;6.74
68127;BMP180;54931;52.098;21.006;2023-02-18T08:21:19;99426.60;;;6.90
68127;BMP180;54931;52.098;21.006;2023-02-18T08:23:49;99432.60;;;7.16
68127;BMP180;54931;52.098;21.006;2023-02-18T08:26:18;99436.60;;;7.20
68127;BMP180;54931;52.098;21.006;2023-02-18T08:28:47;99451.00;;;7.18
68127;BMP180;54931;52.098;21.006;2023-02-18T08:31:23;99447.80;;;7.10
68127;BMP180;54931;52.098;21.006;2023-02-18T08:33:54;99448.00;;;6.96
68127;BMP180;54931;52.098;21.006;2023-02-18T08:36:23;99450.60;;;7.00
68127;BMP180;54931;52.098;21.006;2023-02-18T08:38:51;99456.80;;;7.16
68127;BMP180;54931;52.098;21.006;2023-02-18T08:41:19;99445.80;;;7.20
68127;BMP180;54931;52.098;21.006;2023-02-18T08:43:48;99424.40;;;7.10
68127;BMP180;54931;52.098;21.006;2023-02-18T08:46:16;99451.60;;;6.94
68127;BMP180;54931;52.098;21.006;2023-02-18T08:48:44;99458.20;;;6.90
68127;BMP180;54931;52.098;21.006;2023-02-18T08:51:20;99459.60;;;6.80
68127;BMP180;54931;52.098;21.006;2023-02-18T08:53:49;99447.60;;;6.90
68127;BMP180;54931;52.098;21.006;2023-02-18T08:56:16;99450.20;;;6.90
68127;BMP180;54931;52.098;21.006;2023-02-18T08:58:44;99464.80;;;6.90
68127;BMP180;54931;52.098;21.006;2023-02-18T09:01:13;99469.00;;;6.90
68127;BMP180;54931;52.098;21.006;2023-02-18T09:03:41;99472.40;;;6.80
68127;BMP180;54931;52.098;21.006;2023-02-18T09:06:10;99479.00;;;6.70
68127;BMP180;54931;52.098;21.006;2023-02-18T09:08:38;99471.80;;;6.70
68127;BMP180;54931;52.098;21.006;2023-02-18T09:11:06;99472.20;;;6.60
68127;BMP180;54931;52.098;21.006;2023-02-18T09:13:34;99474.60;;;6.60
68127;BMP180;54931;52.098;21.006;2023-02-18T09:16:12;99482.40;;;6.58
68127;BMP180;54931;52.098;21.006;2023-02-18T09:18:41;99488.20;;;6.60
68127;BMP180;54931;52.098;21.006;2023-02-18T09:21:11;99482.60;;;6.60
68127;BMP180;54931;52.098;21.006;2023-02-18T09:23:39;99495.80;;;6.64
68127;BMP180;54931;52.098;21.006;2023-02-18T09:26:12;99501.00;;;6.62
68127;BMP180;54931;52.098;21.006;2023-02-18T09:28:41;99499.40;;;6.70
68127;BMP180;54931;52.098;21.006;2023-02-18T09:31:16;99499.80;;;6.80
68127;BMP180;54931;52.098;21.006;2023-02-18T09:33:49;99498.40;;;6.70
68127;BMP180;54931;52.098;21.006;2023-02-18T09:36:18;99504.40;;;6.64
68127;BMP180;54931;52.098;21.006;2023-02-18T09:38:50;99504.00;;;6.62
68127;BMP180;54931;52.098;21.006;2023-02-18T09:44:00;99488.40;;;6.60
68127;BMP180;54931;52.098;21.006;2023-02-18T09:46:47;99489.00;;;6.60
68127;BMP180;54931;52.098;21.006;2023-02-18T09:49:22;99507.00;;;6.60
68127;BMP180;54931;52.098;21.006;2023-02-18T09:52:10;99504.40;;;6.60
68127;BMP180;54931;52.098;21.006;2023-02-18T09:54:40;99515.00;;;6.60
68127;BMP180;54931;52.098;21.006;2023-02-18T09:57:29;99497.80;;;6.50
68127;BMP180;54931;52.098;21.006;2023-02-18T10:00:14;99527.60;;;6.60
68127;BMP180;54931;52.098;21.006;2023-02-18T10:02:58;99518.80;;;6.60
68127;BMP180;54931;52.098;21.006;2023-02-18T10:05:30;99529.80;;;6.50
68127;BMP180;54931;52.098;21.006;2023-02-18T10:08:05;99545.20;;;6.50
68127;BMP180;54931;52.098;21.006;2023-02-18T10:10:42;99539.80;;;6.50
68127;BMP180;54931;52.098;21.006;2023-02-18T10:13:24;99550.00;;;6.50
68127;BMP180;54931;52.098;21.006;2023-02-18T10:15:52;99533.60;;;6.50
68127;BMP180;54931;52.098;21.006;2023-02-18T10:18:28;99527.80;;;6.50
68127;BMP180;54931;52.098;21.006;2023-02-18T10:21:23;99543.00;;;6.50
68127;BMP180;54931;52.098;21.006;2023-02-18T10:24:09;99543.80;;;6.50
68127;BMP180;54931;52.098;21.006;2023-02-18T10:26:40;99530.20;;;6.50
68127;BMP180;54931;52.098;21.006;2023-02-18T10:29:16;99527.60;;;6.50
68127;BMP180;54931;52.098;21.006;2023-02-18T10:32:10;99531.40;;;6.50
68127;BMP180;54931;52.098;21.006;2023-02-18T10:34:51;99502.40;;;6.44
68127;BMP180;54931;52.098;21.006;2023-02-18T10:46:21;99505.40;;;6.72
68127;BMP180;54931;52.098;21.006;2023-02-18T10:49:06;99511.20;;;6.80
68127;BMP180;54931;52.098;21.006;2023-02-18T10:51:44;99503.20;;;6.80
68127;BMP180;54931;52.098;21.006;2023-02-18T10:54:14;99492.40;;;6.80
68127;BMP180;54931;52.098;21.006;2023-02-18T10:56:58;99484.20;;;6.80
68127;BMP180;54931;52.098;21.006;2023-02-18T10:59:32;99493.40;;;6.80
68127;BMP180;54931;52.098;21.006;2023-02-18T11:02:16;99495.60;;;6.72
68127;BMP180;54931;52.098;21.006;2023-02-18T11:04:45;99440.00;;;6.64
68127;BMP180;54931;52.098;21.006;2023-02-18T11:07:30;99488.00;;;6.60
68127;BMP180;54931;52.098;21.006;2023-02-18T11:10:21;99505.00;;;6.60
68127;BMP180;54931;52.098;21.006;2023-02-18T11:12:57;99500.60;;;6.60
68127;BMP180;54931;52.098;21.006;2023-02-18T11:15:28;99477.00;;;6.70
68127;BMP180;54931;52.098;21.006;2023-02-18T11:18:41;99479.40;;;6.70
68127;BMP180;54931;52.098;21.006;2023-02-18T11:21:34;99485.20;;;6.76
68127;BMP180;54931;52.098;21.006;2023-02-18T11:24:11;99479.60;;;6.76
68127;BMP180;54931;52.098;21.006;2023-02-18T11:26:42;99480.40;;;6.80
68127;BMP180;54931;52.098;21.006;2023-02-18T11:29:23;99469.60;;;6.80
68127;BMP180;54931;52.098;21.006;2023-02-18T11:31:55;99459.80;;;6.76
68127;BMP180;54931;52.098;21.006;2023-02-18T11:34:30;99470.40;;;6.80
68127;BMP180;54931;52.098;21.006;2023-02-18T11:37:18;99463.60;;;6.80
68127;BMP180;54931;52.098;21.006;2023-02-18T11:39:52;99449.20;;;6.68
68127;BMP180;54931;52.098;21.006;2023-02-18T11:42:25;99414.20;;;6.62
68127;BMP180;54931;52.098;21.006;2023-02-18T11:44:58;99471.80;;;6.64
68127;BMP180;54931;52.098;21.006;2023-02-18T11:47:36;99450.60;;;6.70
68127;BMP180;54931;52.098;21.006;2023-02-18T11:52:44;99462.00;;;6.86
68127;BMP180;54931;52.098;21.006;2023-02-18T11:55:19;99462.80;;;6.90
68127;BMP180;54931;52.098;21.006;2023-02-18T11:58:03;99468.40;;;6.92
68127;BMP180;54931;52.098;21.006;2023-02-18T12:00:39;99441.00;;;6.98
68127;BMP180;54931;52.098;21.006;2023-02-18T12:06:40;99464.00;;;6.90
68127;BMP180;54931;52.098;21.006;2023-02-18T12:09:28;99461.40;;;6.90
68127;BMP180;54931;52.098;21.006;2023-02-18T12:12:05;99446.60;;;6.90
68127;BMP180;54931;52.098;21.006;2023-02-18T12:14:35;99461.20;;;6.90
68127;BMP180;54931;52.098;21.006;2023-02-18T12:17:29;99452.60;;;6.84
68127;BMP180;54931;52.098;21.006;2023-02-18T12:27:23;99426.60;;;6.90
68127;BMP180;54931;52.098;21.006;2023-02-18T12:35:58;99422.60;;;6.94
68127;BMP180;54931;52.098;21.006;2023-02-18T12:38:54;99434.40;;;6.90
68127;BMP180;54931;52.098;21.006;2023-02-18T12:42:03;99423.40;;;6.96
68127;BMP180;54931;52.098;21.006;2023-02-18T12:51:01;99410.80;;;6.90
68127;BMP180;54931;52.098;21.006;2023-02-18T13:02:32;99389.40;;;7.00
68127;BMP180;54931;52.098;21.006;2023-02-18T13:05:47;99397.00;;;7.10
68127;BMP180;54931;52.098;21.006;2023-02-18T13:08:34;99421.40;;;7.10
68127;BMP180;54931;52.098;21.006;2023-02-18T13:11:36;99413.60;;;7.10
68127;BMP180;54931;52.098;21.006;2023-02-18T13:17:16;99387.80;;;7.00
68127;BMP180;54931;52.098;21.006;2023-02-18T13:19:54;99391.40;;;6.98
68127;BMP180;54931;52.098;21.006;2023-02-18T13:22:28;99392.60;;;7.00
68127;BMP180;54931;52.098;21.006;2023-02-18T13:24:58;99393.40;;;6.96
68127;BMP180;54931;52.098;21.006;2023-02-18T13:27:42;99391.80;;;6.90
68127;BMP180;54931;52.098;21.006;2023-02-18T13:30:32;99391.60;;;6.80
68127;BMP180;54931;52.098;21.006;2023-02-18T13:34:20;99393.20;;;6.80
68127;BMP180;54931;52.098;21.006;2023-02-18T13:36:48;99384.40;;;6.78
68127;BMP180;54931;52.098;21.006;2023-02-18T13:39:22;99384.60;;;6.70
68127;BMP180;54931;52.098;21.006;2023-02-18T13:47:48;99392.40;;;6.66
68127;BMP180;54931;52.098;21.006;2023-02-18T13:58:41;99404.00;;;6.60
68127;BMP180;54931;52.098;21.006;2023-02-18T14:06:32;99394.40;;;6.50
68127;BMP180;54931;52.098;21.006;2023-02-18T14:11:55;99400.00;;;6.50
68127;BMP180;54931;52.098;21.006;2023-02-18T14:22:43;99381.40;;;6.40
68127;BMP180;54931;52.098;21.006;2023-02-18T14:27:42;99378.20;;;6.40
68127;BMP180;54931;52.098;21.006;2023-02-18T14:32:44;99371.80;;;6.40
68127;BMP180;54931;52.098;21.006;2023-02-18T14:35:21;99366.00;;;6.32
68127;BMP180;54931;52.098;21.006;2023-02-18T14:41:05;99349.40;;;6.32
68127;BMP180;54931;52.098;21.006;2023-02-18T14:49:52;99341.20;;;6.30
68127;BMP180;54931;52.098;21.006;2023-02-18T14:53:06;99339.00;;;6.30
68127;BMP180;54931;52.098;21.006;2023-02-18T14:55:44;99325.20;;;6.30
68127;BMP180;54931;52.098;21.006;2023-02-18T14:58:33;99336.40;;;6.30
68127;BMP180;54931;52.098;21.006;2023-02-18T15:01:30;99341.80;;;6.20
68127;BMP180;54931;52.098;21.006;2023-02-18T15:04:01;99348.00;;;6.08
68127;BMP180;54931;52.098;21.006;2023-02-18T15:06:31;99343.80;;;5.90
68127;BMP180;54931;52.098;21.006;2023-02-18T15:09:17;99345.60;;;5.60
68127;BMP180;54931;52.098;21.006;2023-02-18T15:12:00;99358.00;;;5.26
68127;BMP180;54931;52.098;21.006;2023-02-18T15:14:42;99375.60;;;5.00
68127;BMP180;54931;52.098;21.006;2023-02-18T15:17:18;99364.80;;;4.82
68127;BMP180;54931;52.098;21.006;2023-02-18T15:19:54;99376.20;;;4.60
68127;BMP180;54931;52.098;21.006;2023-02-18T15:22:26;99374.00;;;4.40
68127;BMP180;54931;52.098;21.006;2023-02-18T15:24:58;99362.40;;;4.20
68127;BMP180;54931;52.098;21.006;2023-02-18T15:27:33;99358.80;;;4.00
68127;BMP180;54931;52.098;21.006;2023-02-18T15:30:28;99349.60;;;3.98
68127;BMP180;54931;52.098;21.006;2023-02-18T15:33:00;99351.40;;;3.96
68127;BMP180;54931;52.098;21.006;2023-02-18T15:35:31;99349.80;;;3.90
68127;BMP180;54931;52.098;21.006;2023-02-18T15:38:00;99341.60;;;3.86
68127;BMP180;54931;52.098;21.006;2023-02-18T15:40:34;99343.40;;;3.80
68127;BMP180;54931;52.098;21.006;2023-02-18T15:43:05;99344.20;;;3.80
68127;BMP180;54931;52.098;21.006;2023-02-18T15:45:41;99341.40;;;3.70
68127;BMP180;54931;52.098;21.006;2023-02-18T15:48:44;99338.60;;;3.70
68127;BMP180;54931;52.098;21.006;2023-02-18T15:51:20;99339.60;;;3.60
68127;BMP180;54931;52.098;21.006;2023-02-18T15:53:53;99338.80;;;3.60
68127;BMP180;54931;52.098;21.006;2023-02-18T15:56:44;99336.40;;;3.60
68127;BMP180;54931;52.098;21.006;2023-02-18T15:59:19;99341.20;;;3.50
68127;BMP180;54931;52.098;21.006;2023-02-18T16:01:54;99344.20;;;3.50
68127;BMP180;54931;52.098;21.006;2023-02-18T16:04:30;99345.00;;;3.50
68127;BMP180;54931;52.098;21.006;2023-02-18T16:07:15;99342.80;;;3.40
68127;BMP180;54931;52.098;21.006;2023-02-18T16:09:46;99335.20;;;3.40
68127;BMP180;54931;52.098;21.006;2023-02-18T16:12:31;99340.40;;;3.40
68127;BMP180;54931;52.098;21.006;2023-02-18T16:14:59;99331.00;;;3.40
68127;BMP180;54931;52.098;21.006;2023-02-18T16:17:29;99333.60;;;3.40
68127;BMP180;54931;52.098;21.006;2023-02-18T16:20:16;99327.00;;;3.30
68127;BMP180;54931;52.098;21.006;2023-02-18T16:22:51;99336.40;;;3.30
68127;BMP180;54931;52.098;21.006;2023-02-18T16:25:38;99337.60;;;3.30
68127;BMP180;54931;52.098;21.006;2023-02-18T16:28:22;99337.20;;;3.30
68127;BMP180;54931;52.098;21.006;2023-02-18T16:30:51;99338.00;;;3.30
68127;BMP180;54931;52.098;21.006;2023-02-18T16:33:18;99336.80;;;3.30
68127;BMP180;54931;52.098;21.006;2023-02-18T16:35:47;99332.00;;;3.30
68127;BMP180;54931;52.098;21.006;2023-02-18T16:38:21;99335.40;;;3.30
68127;BMP180;54931;52.098;21.006;2023-02-18T16:40:54;99333.80;;;3.30
68127;BMP180;54931;52.098;21.006;2023-02-18T16:43:25;99332.00;;;3.34
68127;BMP180;54931;52.098;21.006;2023-02-18T16:45:58;99342.40;;;3.32
68127;BMP180;54931;52.098;21.006;2023-02-18T16:48:39;99340.20;;;3.30
68127;BMP180;54931;52.098;21.006;2023-02-18T16:51:25;99337.40;;;3.32
68127;BMP180;54931;52.098;21.006;2023-02-18T16:53:55;99340.60;;;3.40
68127;BMP180;54931;52.098;21.006;2023-02-18T16:56:29;99338.00;;;3.40